sensor_id;sensor_type;location;lat;lon;timestamp;P1;durP1;ratioP1;P2;durP2;ratioP2
29218;SDS011;16421;50.202;7.852;2023-06-26T00:00:24;2.93;;;2.40;;
29218;SDS011;16421;50.202;7.852;2023-06-26T00:05:28;3.42;;;2.35;;
29218;SDS011;16421;50.202;7.852;2023-06-26T00:10:32;2.53;;;2.10;;
29218;SDS011;16421;50.202;7.852;2023-06-26T00:15:36;2.70;;;2.33;;
29218;SDS011;16421;50.202;7.852;2023-06-26T00:20:42;2.97;;;2.50;;
29218;SDS011;16421;50.202;7.852;2023-06-26T00:25:45;2.95;;;2.55;;
29218;SDS011;16421;50.202;7.852;2023-06-26T00:30:49;4.70;;;2.92;;
29218;SDS011;16421;50.202;7.852;2023-06-26T00:35:54;2.40;;;2.13;;
29218;SDS011;16421;50.202;7.852;2023-06-26T00:40:57;2.80;;;2.40;;
29218;SDS011;16421;50.202;7.852;2023-06-26T00:46:00;2.72;;;2.45;;
29218;SDS011;16421;50.202;7.852;2023-06-26T00:51:05;4.20;;;2.58;;
29218;SDS011;16421;50.202;7.852;2023-06-26T00:56:09;2.90;;;2.30;;
29218;SDS011;16421;50.202;7.852;2023-06-26T01:01:13;3.42;;;2.42;;
29218;SDS011;16421;50.202;7.852;2023-06-26T01:06:20;2.80;;;2.50;;
29218;SDS011;16421;50.202;7.852;2023-06-26T01:11:26;3.00;;;2.40;;
29218;SDS011;16421;50.202;7.852;2023-06-26T01:16:29;3.42;;;2.90;;
29218;SDS011;16421;50.202;7.852;2023-06-26T01:21:34;2.38;;;2.00;;
29218;SDS011;16421;50.202;7.852;2023-06-26T01:26:43;2.63;;;2.30;;
29218;SDS011;16421;50.202;7.852;2023-06-26T01:31:48;2.97;;;2.13;;
29218;SDS011;16421;50.202;7.852;2023-06-26T01:36:52;3.00;;;2.53;;
29218;SDS011;16421;50.202;7.852;2023-06-26T01:41:57;3.55;;;2.55;;
29218;SDS011;16421;50.202;7.852;2023-06-26T01:47:01;2.93;;;2.50;;
29218;SDS011;16421;50.202;7.852;2023-06-26T01:52:07;2.83;;;2.35;;
29218;SDS011;16421;50.202;7.852;2023-06-26T01:57:18;2.55;;;2.35;;
29218;SDS011;16421;50.202;7.852;2023-06-26T02:02:24;4.47;;;3.17;;
29218;SDS011;16421;50.202;7.852;2023-06-26T02:07:28;3.42;;;2.80;;
29218;SDS011;16421;50.202;7.852;2023-06-26T02:12:33;3.03;;;2.50;;
29218;SDS011;16421;50.202;7.852;2023-06-26T02:17:37;3.33;;;2.73;;
29218;SDS011;16421;50.202;7.852;2023-06-26T02:22:40;2.20;;;2.00;;
29218;SDS011;16421;50.202;7.852;2023-06-26T02:27:47;3.50;;;2.40;;
29218;SDS011;16421;50.202;7.852;2023-06-26T02:32:50;2.97;;;2.28;;
29218;SDS011;16421;50.202;7.852;2023-06-26T02:37:53;2.75;;;2.28;;
29218;SDS011;16421;50.202;7.852;2023-06-26T04:14:39;3.67;;;2.45;;
29218;SDS011;16421;50.202;7.852;2023-06-26T04:19:43;3.30;;;2.50;;
29218;SDS011;16421;50.202;7.852;2023-06-26T04:24:46;3.50;;;2.30;;
29218;SDS011;16421;50.202;7.852;2023-06-26T04:29:52;2.83;;;2.30;;
29218;SDS011;16421;50.202;7.852;2023-06-26T04:34:55;5.50;;;2.47;;
29218;SDS011;16421;50.202;7.852;2023-06-26T04:39:59;3.33;;;2.45;;
29218;SDS011;16421;50.202;7.852;2023-06-26T04:45:08;2.50;;;2.17;;
29218;SDS011;16421;50.202;7.852;2023-06-26T04:50:17;2.75;;;2.20;;
29218;SDS011;16421;50.202;7.852;2023-06-26T04:55:21;3.60;;;2.25;;
29218;SDS011;16421;50.202;7.852;2023-06-26T05:00:27;2.72;;;2.28;;
29218;SDS011;16421;50.202;7.852;2023-06-26T05:05:31;2.50;;;2.10;;
29218;SDS011;16421;50.202;7.852;2023-06-26T05:10:35;2.97;;;2.22;;
29218;SDS011;16421;50.202;7.852;2023-06-26T05:15:40;2.90;;;2.55;;
29218;SDS011;16421;50.202;7.852;2023-06-26T05:20:44;2.70;;;2.05;;
29218;SDS011;16421;50.202;7.852;2023-06-26T05:25:51;3.72;;;2.17;;
29218;SDS011;16421;50.202;7.852;2023-06-26T05:30:57;2.10;;;1.77;;
29218;SDS011;16421;50.202;7.852;2023-06-26T05:41:06;5.15;;;2.92;;
29218;SDS011;16421;50.202;7.852;2023-06-26T05:46:11;7.75;;;3.30;;
29218;SDS011;16421;50.202;7.852;2023-06-26T05:51:18;6.13;;;2.20;;
29218;SDS011;16421;50.202;7.852;2023-06-26T05:56:22;5.18;;;2.30;;
29218;SDS011;16421;50.202;7.852;2023-06-26T06:01:28;6.88;;;3.05;;
29218;SDS011;16421;50.202;7.852;2023-06-26T06:06:31;7.65;;;4.03;;
29218;SDS011;16421;50.202;7.852;2023-06-26T06:11:35;5.10;;;2.90;;
29218;SDS011;16421;50.202;7.852;2023-06-26T06:16:40;3.30;;;2.60;;
29218;SDS011;16421;50.202;7.852;2023-06-26T06:21:43;3.92;;;3.08;;
29218;SDS011;16421;50.202;7.852;2023-06-26T06:26:47;4.05;;;2.60;;
29218;SDS011;16421;50.202;7.852;2023-06-26T06:31:52;4.05;;;2.70;;
29218;SDS011;16421;50.202;7.852;2023-06-26T06:36:56;3.03;;;2.50;;
29218;SDS011;16421;50.202;7.852;2023-06-26T06:42:00;2.42;;;2.15;;
29218;SDS011;16421;50.202;7.852;2023-06-26T06:47:05;3.08;;;2.10;;
29218;SDS011;16421;50.202;7.852;2023-06-26T06:52:09;3.75;;;2.67;;
29218;SDS011;16421;50.202;7.852;2023-06-26T06:57:12;5.03;;;3.38;;
29218;SDS011;16421;50.202;7.852;2023-06-26T07:02:17;3.28;;;2.40;;
29218;SDS011;16421;50.202;7.852;2023-06-26T07:07:21;2.77;;;2.43;;
29218;SDS011;16421;50.202;7.852;2023-06-26T07:12:24;3.97;;;3.50;;
29218;SDS011;16421;50.202;7.852;2023-06-26T07:17:30;4.45;;;3.03;;
29218;SDS011;16421;50.202;7.852;2023-06-26T07:22:33;2.83;;;2.13;;
29218;SDS011;16421;50.202;7.852;2023-06-26T07:27:37;3.70;;;2.80;;
29218;SDS011;16421;50.202;7.852;2023-06-26T07:32:45;3.70;;;2.88;;
29218;SDS011;16421;50.202;7.852;2023-06-26T07:37:49;3.17;;;2.80;;
29218;SDS011;16421;50.202;7.852;2023-06-26T07:42:55;4.18;;;2.85;;
29218;SDS011;16421;50.202;7.852;2023-06-26T07:48:01;3.00;;;2.58;;
29218;SDS011;16421;50.202;7.852;2023-06-26T07:53:04;3.13;;;2.80;;
29218;SDS011;16421;50.202;7.852;2023-06-26T07:58:08;2.88;;;2.38;;
29218;SDS011;16421;50.202;7.852;2023-06-26T08:03:13;2.97;;;2.58;;
29218;SDS011;16421;50.202;7.852;2023-06-26T08:08:22;2.17;;;1.85;;
29218;SDS011;16421;50.202;7.852;2023-06-26T08:13:25;2.92;;;2.08;;
29218;SDS011;16421;50.202;7.852;2023-06-26T08:18:30;3.20;;;2.13;;
29218;SDS011;16421;50.202;7.852;2023-06-26T08:23:33;2.10;;;1.90;;
29218;SDS011;16421;50.202;7.852;2023-06-26T08:28:36;2.33;;;1.90;;
29218;SDS011;16421;50.202;7.852;2023-06-26T08:33:41;3.90;;;2.95;;
29218;SDS011;16421;50.202;7.852;2023-06-26T08:38:45;3.67;;;2.77;;
29218;SDS011;16421;50.202;7.852;2023-06-26T08:43:48;2.95;;;2.38;;
29218;SDS011;16421;50.202;7.852;2023-06-26T08:48:55;3.08;;;2.65;;
29218;SDS011;16421;50.202;7.852;2023-06-26T08:54:00;4.60;;;2.97;;
29218;SDS011;16421;50.202;7.852;2023-06-26T08:59:04;3.70;;;2.45;;
29218;SDS011;16421;50.202;7.852;2023-06-26T09:04:10;2.20;;;1.95;;
29218;SDS011;16421;50.202;7.852;2023-06-26T09:09:13;5.50;;;3.77;;
29218;SDS011;16421;50.202;7.852;2023-06-26T09:14:17;3.40;;;2.30;;
29218;SDS011;16421;50.202;7.852;2023-06-26T09:19:22;1.95;;;1.77;;
29218;SDS011;16421;50.202;7.852;2023-06-26T09:24:25;2.83;;;2.33;;
29218;SDS011;16421;50.202;7.852;2023-06-26T09:29:29;1.92;;;1.73;;
29218;SDS011;16421;50.202;7.852;2023-06-26T09:34:34;3.53;;;2.80;;
29218;SDS011;16421;50.202;7.852;2023-06-26T09:44:43;2.53;;;1.90;;
29218;SDS011;16421;50.202;7.852;2023-06-26T09:49:48;2.85;;;2.03;;
29218;SDS011;16421;50.202;7.852;2023-06-26T09:55:06;4.82;;;2.90;;
29218;SDS011;16421;50.202;7.852;2023-06-26T10:00:11;3.55;;;2.65;;
29218;SDS011;16421;50.202;7.852;2023-06-26T10:05:16;2.78;;;1.98;;
29218;SDS011;16421;50.202;7.852;2023-06-26T10:10:21;2.13;;;1.85;;
29218;SDS011;16421;50.202;7.852;2023-06-26T10:15:26;1.80;;;1.52;;
29218;SDS011;16421;50.202;7.852;2023-06-26T10:30:39;1.70;;;1.47;;
29218;SDS011;16421;50.202;7.852;2023-06-26T10:35:46;3.58;;;1.98;;
29218;SDS011;16421;50.202;7.852;2023-06-26T10:40:50;2.63;;;1.80;;
29218;SDS011;16421;50.202;7.852;2023-06-26T10:45:54;3.60;;;1.85;;
29218;SDS011;16421;50.202;7.852;2023-06-26T10:50:59;2.42;;;1.60;;
29218;SDS011;16421;50.202;7.852;2023-06-26T10:56:16;2.22;;;1.60;;
29218;SDS011;16421;50.202;7.852;2023-06-26T11:01:20;2.58;;;1.85;;
29218;SDS011;16421;50.202;7.852;2023-06-26T11:17:06;2.63;;;1.80;;
29218;SDS011;16421;50.202;7.852;2023-06-26T11:22:11;5.65;;;2.00;;
29218;SDS011;16421;50.202;7.852;2023-06-26T11:27:16;1.80;;;1.42;;
29218;SDS011;16421;50.202;7.852;2023-06-26T11:32:19;3.42;;;2.28;;
29218;SDS011;16421;50.202;7.852;2023-06-26T11:37:24;2.97;;;1.30;;
29218;SDS011;16421;50.202;7.852;2023-06-26T11:42:27;1.85;;;1.38;;
29218;SDS011;16421;50.202;7.852;2023-06-26T11:47:32;1.58;;;0.90;;
29218;SDS011;16421;50.202;7.852;2023-06-26T11:52:36;2.78;;;1.73;;
29218;SDS011;16421;50.202;7.852;2023-06-26T11:57:47;2.33;;;1.05;;
29218;SDS011;16421;50.202;7.852;2023-06-26T12:02:51;2.10;;;1.42;;
29218;SDS011;16421;50.202;7.852;2023-06-26T12:07:57;2.08;;;1.02;;
29218;SDS011;16421;50.202;7.852;2023-06-26T12:13:00;2.75;;;1.50;;
29218;SDS011;16421;50.202;7.852;2023-06-26T12:18:07;1.92;;;1.00;;
29218;SDS011;16421;50.202;7.852;2023-06-26T12:23:13;2.90;;;1.27;;
29218;SDS011;16421;50.202;7.852;2023-06-26T12:28:16;3.92;;;0.90;;
29218;SDS011;16421;50.202;7.852;2023-06-26T12:33:21;1.30;;;0.80;;
29218;SDS011;16421;50.202;7.852;2023-06-26T12:38:30;2.27;;;1.00;;
29218;SDS011;16421;50.202;7.852;2023-06-26T12:43:35;10.65;;;1.75;;
29218;SDS011;16421;50.202;7.852;2023-06-26T12:48:41;1.90;;;0.93;;
29218;SDS011;16421;50.202;7.852;2023-06-26T12:53:49;3.28;;;1.08;;
29218;SDS011;16421;50.202;7.852;2023-06-26T12:58:52;1.60;;;0.90;;
29218;SDS011;16421;50.202;7.852;2023-06-26T13:03:55;2.38;;;1.00;;
29218;SDS011;16421;50.202;7.852;2023-06-26T13:09:00;2.22;;;0.77;;
29218;SDS011;16421;50.202;7.852;2023-06-26T13:14:05;2.00;;;0.80;;
29218;SDS011;16421;50.202;7.852;2023-06-26T13:19:11;2.75;;;1.20;;
29218;SDS011;16421;50.202;7.852;2023-06-26T13:24:16;1.38;;;0.70;;
29218;SDS011;16421;50.202;7.852;2023-06-26T13:29:20;2.88;;;0.50;;
29218;SDS011;16421;50.202;7.852;2023-06-26T13:34:24;2.95;;;0.60;;
29218;SDS011;16421;50.202;7.852;2023-06-26T13:39:31;2.85;;;0.73;;
29218;SDS011;16421;50.202;7.852;2023-06-26T13:44:34;1.27;;;0.60;;
29218;SDS011;16421;50.202;7.852;2023-06-26T13:49:41;0.85;;;0.50;;
29218;SDS011;16421;50.202;7.852;2023-06-26T13:54:46;1.63;;;0.68;;
29218;SDS011;16421;50.202;7.852;2023-06-26T13:59:49;1.55;;;0.63;;
29218;SDS011;16421;50.202;7.852;2023-06-26T14:04:53;1.88;;;0.90;;
29218;SDS011;16421;50.202;7.852;2023-06-26T14:09:57;1.70;;;0.55;;
29218;SDS011;16421;50.202;7.852;2023-06-26T14:15:01;1.10;;;0.50;;
29218;SDS011;16421;50.202;7.852;2023-06-26T14:20:05;1.47;;;0.60;;
29218;SDS011;16421;50.202;7.852;2023-06-26T14:25:13;1.40;;;0.60;;
29218;SDS011;16421;50.202;7.852;2023-06-26T14:30:16;1.67;;;0.50;;
29218;SDS011;16421;50.202;7.852;2023-06-26T14:35:20;2.55;;;0.60;;
29218;SDS011;16421;50.202;7.852;2023-06-26T14:40:24;4.30;;;0.68;;
29218;SDS011;16421;50.202;7.852;2023-06-26T14:50:32;1.27;;;0.90;;
29218;SDS011;16421;50.202;7.852;2023-06-26T14:55:37;1.25;;;0.68;;
29218;SDS011;16421;50.202;7.852;2023-06-26T15:00:40;1.45;;;0.73;;
29218;SDS011;16421;50.202;7.852;2023-06-26T15:05:45;1.15;;;0.60;;
29218;SDS011;16421;50.202;7.852;2023-06-26T15:10:49;1.58;;;0.80;;
29218;SDS011;16421;50.202;7.852;2023-06-26T15:15:53;1.65;;;0.90;;
29218;SDS011;16421;50.202;7.852;2023-06-26T15:20:56;2.78;;;1.05;;
29218;SDS011;16421;50.202;7.852;2023-06-26T15:26:01;1.42;;;0.65;;
29218;SDS011;16421;50.202;7.852;2023-06-26T15:31:04;2.42;;;1.00;;
29218;SDS011;16421;50.202;7.852;2023-06-26T15:36:08;3.40;;;0.90;;
29218;SDS011;16421;50.202;7.852;2023-06-26T15:41:13;2.92;;;0.90;;
29218;SDS011;16421;50.202;7.852;2023-06-26T15:46:16;1.75;;;0.90;;
29218;SDS011;16421;50.202;7.852;2023-06-26T15:51:20;1.83;;;0.90;;
29218;SDS011;16421;50.202;7.852;2023-06-26T15:56:24;1.00;;;0.65;;
29218;SDS011;16421;50.202;7.852;2023-06-26T16:01:28;0.50;;;0.47;;
29218;SDS011;16421;50.202;7.852;2023-06-26T16:06:31;2.95;;;1.00;;
29218;SDS011;16421;50.202;7.852;2023-06-26T16:11:36;2.08;;;0.75;;
29218;SDS011;16421;50.202;7.852;2023-06-26T16:16:39;1.63;;;0.95;;
29218;SDS011;16421;50.202;7.852;2023-06-26T16:21:42;4.13;;;0.90;;
29218;SDS011;16421;50.202;7.852;2023-06-26T16:26:48;1.50;;;0.80;;
29218;SDS011;16421;50.202;7.852;2023-06-26T16:31:51;1.57;;;0.60;;
29218;SDS011;16421;50.202;7.852;2023-06-26T16:36:57;5.80;;;1.20;;
29218;SDS011;16421;50.202;7.852;2023-06-26T16:42:09;1.40;;;0.70;;
29218;SDS011;16421;50.202;7.852;2023-06-26T16:47:14;2.05;;;0.60;;
29218;SDS011;16421;50.202;7.852;2023-06-26T16:52:18;2.55;;;0.65;;
29218;SDS011;16421;50.202;7.852;2023-06-26T16:57:23;1.02;;;0.55;;
29218;SDS011;16421;50.202;7.852;2023-06-26T17:02:26;2.60;;;0.60;;
29218;SDS011;16421;50.202;7.852;2023-06-26T17:07:31;1.80;;;0.73;;
29218;SDS011;16421;50.202;7.852;2023-06-26T17:12:38;3.27;;;0.67;;
29218;SDS011;16421;50.202;7.852;2023-06-26T17:17:43;1.88;;;0.70;;
29218;SDS011;16421;50.202;7.852;2023-06-26T17:22:46;1.10;;;0.60;;
29218;SDS011;16421;50.202;7.852;2023-06-26T17:27:51;1.75;;;0.70;;
29218;SDS011;16421;50.202;7.852;2023-06-26T17:32:54;1.60;;;0.50;;
29218;SDS011;16421;50.202;7.852;2023-06-26T17:37:57;1.13;;;0.40;;
29218;SDS011;16421;50.202;7.852;2023-06-26T17:43:02;1.00;;;0.63;;
29218;SDS011;16421;50.202;7.852;2023-06-26T17:48:06;1.60;;;0.63;;
29218;SDS011;16421;50.202;7.852;2023-06-26T17:53:09;1.58;;;0.70;;
29218;SDS011;16421;50.202;7.852;2023-06-26T17:58:14;1.70;;;0.50;;
29218;SDS011;16421;50.202;7.852;2023-06-26T18:03:17;1.07;;;0.47;;
29218;SDS011;16421;50.202;7.852;2023-06-26T18:08:21;2.47;;;0.45;;
29218;SDS011;16421;50.202;7.852;2023-06-26T18:13:26;0.57;;;0.50;;
29218;SDS011;16421;50.202;7.852;2023-06-26T18:18:29;1.03;;;0.70;;
29218;SDS011;16421;50.202;7.852;2023-06-26T18:23:32;1.50;;;0.60;;
29218;SDS011;16421;50.202;7.852;2023-06-26T18:28:37;2.22;;;0.60;;
29218;SDS011;16421;50.202;7.852;2023-06-26T18:33:40;1.75;;;0.50;;
29218;SDS011;16421;50.202;7.852;2023-06-26T18:38:45;1.45;;;0.60;;
29218;SDS011;16421;50.202;7.852;2023-06-26T18:43:49;1.30;;;0.60;;
29218;SDS011;16421;50.202;7.852;2023-06-26T18:48:59;0.93;;;0.60;;
29218;SDS011;16421;50.202;7.852;2023-06-26T18:54:03;2.60;;;0.50;;
29218;SDS011;16421;50.202;7.852;2023-06-26T18:59:08;4.30;;;0.60;;
29218;SDS011;16421;50.202;7.852;2023-06-26T19:04:11;0.77;;;0.55;;
29218;SDS011;16421;50.202;7.852;2023-06-26T19:09:16;2.00;;;0.52;;
29218;SDS011;16421;50.202;7.852;2023-06-26T19:14:21;2.17;;;0.60;;
29218;SDS011;16421;50.202;7.852;2023-06-26T19:19:24;0.87;;;0.50;;
29218;SDS011;16421;50.202;7.852;2023-06-26T19:24:28;1.58;;;0.40;;
29218;SDS011;16421;50.202;7.852;2023-06-26T19:29:36;0.98;;;0.57;;
29218;SDS011;16421;50.202;7.852;2023-06-26T19:34:40;1.52;;;0.50;;
29218;SDS011;16421;50.202;7.852;2023-06-26T19:39:43;1.40;;;0.63;;
29218;SDS011;16421;50.202;7.852;2023-06-26T19:44:48;3.08;;;0.95;;
29218;SDS011;16421;50.202;7.852;2023-06-26T19:49:51;4.27;;;0.80;;
29218;SDS011;16421;50.202;7.852;2023-06-26T19:54:55;0.90;;;0.65;;
29218;SDS011;16421;50.202;7.852;2023-06-26T20:00:00;2.13;;;0.55;;
29218;SDS011;16421;50.202;7.852;2023-06-26T20:05:11;1.42;;;0.50;;
29218;SDS011;16421;50.202;7.852;2023-06-26T20:10:16;1.00;;;0.60;;
29218;SDS011;16421;50.202;7.852;2023-06-26T20:15:21;0.73;;;0.38;;
29218;SDS011;16421;50.202;7.852;2023-06-26T20:20:25;0.70;;;0.40;;
29218;SDS011;16421;50.202;7.852;2023-06-26T20:25:28;1.90;;;0.63;;
29218;SDS011;16421;50.202;7.852;2023-06-26T20:30:33;1.63;;;0.63;;
29218;SDS011;16421;50.202;7.852;2023-06-26T20:35:37;0.80;;;0.40;;
29218;SDS011;16421;50.202;7.852;2023-06-26T20:40:41;0.73;;;0.45;;
29218;SDS011;16421;50.202;7.852;2023-06-26T20:58:20;1.00;;;0.50;;
29218;SDS011;16421;50.202;7.852;2023-06-26T21:03:49;1.23;;;0.55;;
29218;SDS011;16421;50.202;7.852;2023-06-26T21:15:11;2.15;;;0.68;;
29218;SDS011;16421;50.202;7.852;2023-06-26T21:20:32;2.13;;;0.60;;
29218;SDS011;16421;50.202;7.852;2023-06-26T21:26:06;1.05;;;0.60;;
29218;SDS011;16421;50.202;7.852;2023-06-26T21:31:46;1.67;;;0.50;;
29218;SDS011;16421;50.202;7.852;2023-06-26T21:36:58;0.85;;;0.55;;
29218;SDS011;16421;50.202;7.852;2023-06-26T21:42:07;1.83;;;0.70;;
29218;SDS011;16421;50.202;7.852;2023-06-26T21:47:18;1.20;;;0.50;;
29218;SDS011;16421;50.202;7.852;2023-06-26T21:52:30;1.45;;;0.52;;
29218;SDS011;16421;50.202;7.852;2023-06-26T21:57:56;2.17;;;0.80;;
29218;SDS011;16421;50.202;7.852;2023-06-26T22:03:04;2.22;;;0.60;;
29218;SDS011;16421;50.202;7.852;2023-06-26T22:08:11;1.05;;;0.70;;
29218;SDS011;16421;50.202;7.852;2023-06-26T22:13:27;0.95;;;0.55;;
29218;SDS011;16421;50.202;7.852;2023-06-26T22:18:37;1.20;;;0.60;;
29218;SDS011;16421;50.202;7.852;2023-06-26T22:23:42;1.27;;;0.70;;
29218;SDS011;16421;50.202;7.852;2023-06-26T22:29:07;1.08;;;0.57;;
29218;SDS011;16421;50.202;7.852;2023-06-26T22:34:27;1.95;;;0.73;;
29218;SDS011;16421;50.202;7.852;2023-06-26T22:39:48;1.60;;;0.70;;
29218;SDS011;16421;50.202;7.852;2023-06-26T22:45:10;0.95;;;0.60;;
29218;SDS011;16421;50.202;7.852;2023-06-26T22:50:28;0.82;;;0.68;;
29218;SDS011;16421;50.202;7.852;2023-06-26T22:55:42;1.27;;;0.70;;
29218;SDS011;16421;50.202;7.852;2023-06-26T23:01:11;2.45;;;0.90;;
29218;SDS011;16421;50.202;7.852;2023-06-26T23:06:35;1.83;;;0.57;;
29218;SDS011;16421;50.202;7.852;2023-06-26T23:11:53;1.83;;;1.00;;
29218;SDS011;16421;50.202;7.852;2023-06-26T23:28:58;1.88;;;0.65;;
29218;SDS011;16421;50.202;7.852;2023-06-26T23:34:52;0.90;;;0.68;;
29218;SDS011;16421;50.202;7.852;2023-06-26T23:45:32;2.55;;;0.57;;
29218;SDS011;16421;50.202;7.852;2023-06-26T23:51:12;0.75;;;0.60;;
29218;SDS011;16421;50.202;7.852;2023-06-26T23:56:32;2.17;;;0.90;;
